Time;durP1;ratioP1;P1;durP2;ratioP2;P2;SDS_P1;SDS_P2;PMS_P1;PMS_P2;Temp;Humidity;BMP_temperature;BMP_pressure;BME280_temperature;BME280_humidity;BME280_pressure;Samples;Min_cycle;Max_cycle;Signal;HPM_P1;HPM_P2
2023/05/25 00:00:17;;;;;;;17.35;10.18;;;;;;;;;;10133470;28;20054;-67
2023/05/25 00:05:14;;;;;;;14.73;10.38;;;;;;;;;;10127729;28;20133;-67
2023/05/25 00:10:10;;;;;;;21.17;10.93;;;;;;;;;;10137235;28;20078;-67
2023/05/25 00:15:07;;;;;;;17.45;11.15;;;;;;;;;;10141567;28;20077;-66
2023/05/25 00:20:06;;;;;;;21.63;10.80;;;;;;;;;;10132795;28;20058;-67
2023/05/25 00:25:04;;;;;;;23.88;11.10;;;;;;;;;;10133309;28;20046;-66
2023/05/25 00:30:00;;;;;;;16.30;9.70;;;;;;;;;;10140316;28;20042;-68
2023/05/25 00:34:56;;;;;;;17.67;11.75;;;;;;;;;;10144659;28;20054;-68
2023/05/25 00:39:52;;;;;;;19.85;11.18;;;;;;;;;;10142252;28;20074;-67
2023/05/25 00:44:49;;;;;;;17.38;11.20;;;;;;;;;;10150767;28;20120;-67
2023/05/25 00:49:49;;;;;;;21.02;12.15;;;;;;;;;;10133840;28;20043;-67
2023/05/25 00:54:46;;;;;;;16.05;12.00;;;;;;;;;;10140705;28;20054;-67
2023/05/25 00:59:45;;;;;;;24.27;12.75;;;;;;;;;;10138218;28;20606;-65
2023/05/25 01:04:44;;;;;;;17.75;11.80;;;;;;;;;;10144947;28;20879;-67
2023/05/25 01:09:43;;;;;;;23.45;11.65;;;;;;;;;;10144531;28;20045;-67
2023/05/25 01:14:39;;;;;;;17.30;11.05;;;;;;;;;;10132331;28;20050;-67
2023/05/25 01:19:39;;;;;;;19.98;11.38;;;;;;;;;;10141588;28;20659;-67
2023/05/25 01:24:41;;;;;;;25.00;11.80;;;;;;;;;;10150778;28;20472;-66
2023/05/25 01:29:39;;;;;;;22.70;12.60;;;;;;;;;;10132395;28;20053;-66
2023/05/25 01:34:36;;;;;;;25.67;12.05;;;;;;;;;;10132436;28;20493;-66
2023/05/25 01:39:33;;;;;;;18.42;12.30;;;;;;;;;;10147853;28;20050;-67
2023/05/25 01:44:29;;;;;;;18.98;12.75;;;;;;;;;;10130408;28;20054;-67
2023/05/25 01:49:45;;;;;;;17.75;12.90;;;;;;;;;;10146152;28;20508;-67
2023/05/25 01:54:45;;;;;;;22.50;14.52;;;;;;;;;;10126292;28;20042;-67
2023/05/25 01:59:42;;;;;;;26.95;13.38;;;;;;;;;;10135557;28;20523;-67
2023/05/25 02:04:39;;;;;;;22.45;13.30;;;;;;;;;;10138439;28;20484;-67
2023/05/25 02:09:36;;;;;;;25.95;14.63;;;;;;;;;;10138683;28;20050;-65
2023/05/25 02:14:32;;;;;;;24.67;14.68;;;;;;;;;;10128778;28;20424;-65
2023/05/25 02:19:29;;;;;;;28.08;14.77;;;;;;;;;;10139671;28;20417;-68
2023/05/25 02:24:25;;;;;;;27.48;15.02;;;;;;;;;;10124278;28;20491;-68
2023/05/25 02:29:22;;;;;;;30.58;16.70;;;;;;;;;;10128788;28;20528;-68
2023/05/25 02:34:18;;;;;;;25.20;15.40;;;;;;;;;;10142712;28;20042;-68
2023/05/25 02:39:15;;;;;;;23.48;13.63;;;;;;;;;;10138584;28;20039;-68
2023/05/25 02:44:11;;;;;;;21.73;13.48;;;;;;;;;;10134953;28;20504;-69
2023/05/25 02:49:07;;;;;;;23.25;16.10;;;;;;;;;;10139970;28;20093;-68
2023/05/25 02:54:04;;;;;;;23.02;14.43;;;;;;;;;;10145338;28;20058;-68
2023/05/25 02:59:00;;;;;;;22.27;13.77;;;;;;;;;;10126263;28;20101;-68
2023/05/25 03:03:57;;;;;;;19.67;14.68;;;;;;;;;;10128128;28;20142;-68
2023/05/25 03:08:53;;;;;;;24.50;14.48;;;;;;;;;;10128807;28;20050;-68
2023/05/25 03:13:50;;;;;;;22.88;14.25;;;;;;;;;;10135299;28;20480;-68
2023/05/25 03:18:47;;;;;;;20.52;14.05;;;;;;;;;;10143394;28;20481;-67
2023/05/25 03:23:43;;;;;;;24.63;13.73;;;;;;;;;;10137601;28;20058;-67
2023/05/25 03:28:39;;;;;;;18.27;13.38;;;;;;;;;;10131833;28;20082;-68
2023/05/25 03:33:35;;;;;;;26.40;15.05;;;;;;;;;;10137036;28;20055;-67
2023/05/25 03:38:32;;;;;;;26.63;16.15;;;;;;;;;;10133784;28;20144;-67
2023/05/25 03:43:28;;;;;;;26.75;14.45;;;;;;;;;;10137890;28;20483;-68
2023/05/25 03:48:25;;;;;;;23.80;15.63;;;;;;;;;;10137918;28;20058;-68
2023/05/25 03:53:21;;;;;;;21.20;15.25;;;;;;;;;;10139566;28;20047;-66
2023/05/25 03:58:17;;;;;;;28.30;15.95;;;;;;;;;;10117134;28;20116;-65
2023/05/25 04:03:14;;;;;;;27.55;17.35;;;;;;;;;;10129062;28;20043;-65
2023/05/25 04:08:13;;;;;;;26.23;16.25;;;;;;;;;;10119572;28;20057;-65
2023/05/25 04:13:09;;;;;;;16.25;14.20;;;;;;;;;;10140791;28;20100;-67
2023/05/25 04:18:05;;;;;;;25.45;15.35;;;;;;;;;;10136355;28;20078;-67
2023/05/25 04:23:02;;;;;;;23.92;15.10;;;;;;;;;;10145734;28;20690;-66
2023/05/25 04:27:59;;;;;;;21.95;13.45;;;;;;;;;;10136299;28;20050;-65
2023/05/25 04:32:56;;;;;;;16.50;13.40;;;;;;;;;;10142359;28;20055;-65
2023/05/25 04:37:55;;;;;;;19.45;13.13;;;;;;;;;;10152574;28;20138;-73
2023/05/25 04:42:52;;;;;;;21.17;13.02;;;;;;;;;;10143174;28;20117;-73
2023/05/25 04:47:49;;;;;;;21.17;14.15;;;;;;;;;;10144910;28;20827;-70
2023/05/25 04:52:46;;;;;;;18.30;14.45;;;;;;;;;;10137301;28;20050;-71
2023/05/25 04:57:42;;;;;;;18.00;12.63;;;;;;;;;;10132456;28;20057;-72
2023/05/25 05:02:39;;;;;;;18.05;14.05;;;;;;;;;;10137458;28;20067;-72
2023/05/25 05:07:36;;;;;;;20.45;12.60;;;;;;;;;;10135739;28;20058;-72
2023/05/25 05:12:32;;;;;;;30.92;14.00;;;;;;;;;;10142485;28;20490;-73
2023/05/25 05:17:32;;;;;;;23.60;12.77;;;;;;;;;;10140512;28;20085;-73
2023/05/25 05:22:31;;;;;;;19.85;12.50;;;;;;;;;;10148957;28;20073;-73
2023/05/25 05:27:28;;;;;;;20.05;13.38;;;;;;;;;;10139364;28;20095;-71
2023/05/25 05:32:24;;;;;;;19.25;12.18;;;;;;;;;;10139793;28;20050;-71
2023/05/25 05:37:21;;;;;;;17.77;13.45;;;;;;;;;;10132089;28;20105;-72
2023/05/25 05:42:17;;;;;;;22.27;13.13;;;;;;;;;;10141409;28;20050;-73
2023/05/25 05:47:14;;;;;;;18.65;11.27;;;;;;;;;;10136522;28;20134;-72
2023/05/25 05:52:10;;;;;;;25.23;12.43;;;;;;;;;;10138756;28;20580;-72
2023/05/25 05:57:07;;;;;;;19.65;12.88;;;;;;;;;;10138125;28;20113;-70
2023/05/25 06:02:04;;;;;;;20.00;12.43;;;;;;;;;;10140766;28;20101;-72
2023/05/25 06:07:01;;;;;;;26.83;11.77;;;;;;;;;;10137830;28;20051;-72
2023/05/25 06:11:58;;;;;;;14.45;10.70;;;;;;;;;;10144489;28;20081;-72
2023/05/25 06:16:54;;;;;;;18.98;11.02;;;;;;;;;;10129910;28;20050;-73
2023/05/25 06:21:51;;;;;;;20.63;11.52;;;;;;;;;;10144219;28;20523;-74
2023/05/25 06:26:47;;;;;;;19.67;11.07;;;;;;;;;;10144385;28;20058;-73
2023/05/25 06:31:43;;;;;;;25.13;11.95;;;;;;;;;;10130299;28;20668;-73
2023/05/25 06:36:40;;;;;;;23.25;10.32;;;;;;;;;;10139425;28;20431;-73
2023/05/25 06:41:37;;;;;;;20.55;10.52;;;;;;;;;;10135127;28;20050;-73
2023/05/25 06:46:33;;;;;;;18.30;9.65;;;;;;;;;;10140218;28;20074;-73
2023/05/25 06:51:31;;;;;;;18.55;10.55;;;;;;;;;;10136631;28;20138;-73
2023/05/25 06:56:28;;;;;;;25.30;10.18;;;;;;;;;;10140308;28;20062;-74
2023/05/25 07:01:24;;;;;;;13.30;8.82;;;;;;;;;;10149621;28;20049;-74
2023/05/25 07:06:21;;;;;;;23.60;10.05;;;;;;;;;;10138083;28;20038;-74
2023/05/25 07:11:19;;;;;;;22.50;9.10;;;;;;;;;;10134276;28;20058;-74
2023/05/25 07:16:16;;;;;;;21.40;9.48;;;;;;;;;;10138241;28;20058;-75
2023/05/25 07:21:12;;;;;;;22.25;10.27;;;;;;;;;;10144803;28;20100;-74
2023/05/25 07:26:08;;;;;;;20.98;9.73;;;;;;;;;;10140966;28;20065;-72
2023/05/25 07:31:05;;;;;;;19.88;9.07;;;;;;;;;;10132490;28;20500;-72
2023/05/25 07:36:01;;;;;;;21.35;9.05;;;;;;;;;;10124424;28;20054;-71
2023/05/25 07:40:58;;;;;;;20.73;10.07;;;;;;;;;;10135470;28;20074;-68
2023/05/25 07:45:54;;;;;;;15.52;7.63;;;;;;;;;;10127398;28;20113;-68
2023/05/25 07:50:51;;;;;;;23.10;9.32;;;;;;;;;;10142593;28;20570;-68
2023/05/25 07:55:47;;;;;;;22.25;9.88;;;;;;;;;;10149423;28;20049;-70
2023/05/25 08:00:44;;;;;;;17.25;9.98;;;;;;;;;;10134701;28;20046;-70
2023/05/25 08:05:40;;;;;;;23.02;9.82;;;;;;;;;;10141204;28;20055;-70
2023/05/25 08:10:37;;;;;;;16.70;9.75;;;;;;;;;;10139617;28;20057;-69
2023/05/25 08:15:33;;;;;;;19.20;9.02;;;;;;;;;;10139817;28;20058;-68
2023/05/25 08:20:30;;;;;;;20.80;9.45;;;;;;;;;;10143543;28;20818;-69
2023/05/25 08:25:28;;;;;;;28.65;9.75;;;;;;;;;;10143665;28;20548;-68
2023/05/25 08:30:25;;;;;;;19.02;10.43;;;;;;;;;;10134670;28;21043;-68
2023/05/25 08:35:21;;;;;;;21.63;9.80;;;;;;;;;;10124626;28;20140;-68
2023/05/25 08:40:21;;;;;;;20.52;10.52;;;;;;;;;;10138780;28;20049;-67
2023/05/25 08:45:17;;;;;;;14.98;8.90;;;;;;;;;;10142427;28;20058;-67
2023/05/25 08:50:34;;;;;;;23.42;9.20;;;;;;;;;;10140149;28;20058;-67
2023/05/25 08:55:34;;;;;;;21.63;9.60;;;;;;;;;;10134031;28;20046;-68
2023/05/25 09:00:33;;;;;;;22.52;9.18;;;;;;;;;;10143055;28;20539;-68
2023/05/25 09:05:29;;;;;;;18.87;10.57;;;;;;;;;;10029105;28;3152707;-68
2023/05/25 09:10:27;;;;;;;22.70;9.15;;;;;;;;;;10130287;28;20483;-69
2023/05/25 09:15:24;;;;;;;19.85;10.27;;;;;;;;;;10145217;28;20112;-68
2023/05/25 09:20:21;;;;;;;17.33;9.55;;;;;;;;;;10147815;28;20057;-68
2023/05/25 09:25:21;;;;;;;22.95;10.30;;;;;;;;;;10140061;28;20133;-68
2023/05/25 09:30:17;;;;;;;18.80;9.57;;;;;;;;;;10137663;28;20066;-69
2023/05/25 09:35:14;;;;;;;25.83;11.15;;;;;;;;;;10127264;28;20456;-70
2023/05/25 09:40:10;;;;;;;18.65;9.77;;;;;;;;;;10137767;28;20094;-69
2023/05/25 09:45:11;;;;;;;26.77;10.37;;;;;;;;;;10130363;28;20054;-68
2023/05/25 09:50:08;;;;;;;23.08;11.27;;;;;;;;;;10128145;28;20051;-68
2023/05/25 09:55:08;;;;;;;18.73;11.00;;;;;;;;;;10138597;28;20050;-68
2023/05/25 10:00:05;;;;;;;23.50;10.90;;;;;;;;;;10144480;28;20563;-68
2023/05/25 10:05:01;;;;;;;19.98;9.23;;;;;;;;;;10138295;28;20182;-68
2023/05/25 10:10:01;;;;;;;22.88;10.15;;;;;;;;;;10146447;28;20050;-68
2023/05/25 10:15:01;;;;;;;22.30;9.18;;;;;;;;;;10140398;28;20042;-68
2023/05/25 10:20:04;;;;;;;20.27;9.93;;;;;;;;;;10140300;28;20133;-69
2023/05/25 10:25:07;;;;;;;21.23;9.65;;;;;;;;;;10135012;28;20054;-68
2023/05/25 10:30:04;;;;;;;21.58;10.32;;;;;;;;;;10129646;28;20541;-68
2023/05/25 10:35:02;;;;;;;18.38;9.15;;;;;;;;;;10132899;28;20082;-68
2023/05/25 10:39:58;;;;;;;18.13;8.73;;;;;;;;;;10137374;28;20078;-67
2023/05/25 10:44:55;;;;;;;16.77;8.25;;;;;;;;;;10137089;28;20046;-68
2023/05/25 10:49:53;;;;;;;22.73;9.50;;;;;;;;;;10122720;28;20042;-68
2023/05/25 10:54:54;;;;;;;22.05;10.02;;;;;;;;;;10138170;28;20716;-68
2023/05/25 10:59:53;;;;;;;19.13;8.55;;;;;;;;;;10139424;28;20061;-69
2023/05/25 11:05:10;;;;;;;25.20;10.02;;;;;;;;;;10139573;28;20046;-68
2023/05/25 11:10:06;;;;;;;20.92;9.73;;;;;;;;;;10129117;28;20047;-68
2023/05/25 11:15:11;;;;;;;20.90;9.95;;;;;;;;;;10125337;28;20065;-68
2023/05/25 11:20:19;;;;;;;20.73;9.50;;;;;;;;;;10138345;28;20046;-68
2023/05/25 11:25:35;;;;;;;27.30;11.07;;;;;;;;;;10130083;28;20052;-68
2023/05/25 11:30:32;;;;;;;19.50;9.73;;;;;;;;;;10132969;28;20601;-69
2023/05/25 11:35:32;;;;;;;19.45;9.65;;;;;;;;;;10131746;28;20540;-68
2023/05/25 11:40:29;;;;;;;26.30;10.60;;;;;;;;;;10131477;28;20050;-69
2023/05/25 11:45:32;;;;;;;22.38;9.90;;;;;;;;;;10129275;28;20078;-69
2023/05/25 11:50:29;;;;;;;22.85;9.77;;;;;;;;;;10129014;28;20175;-69
2023/05/25 11:55:26;;;;;;;22.23;9.60;;;;;;;;;;10133768;28;20047;-68
2023/05/25 12:00:23;;;;;;;19.50;10.35;;;;;;;;;;10129120;28;20053;-69
2023/05/25 12:05:19;;;;;;;24.30;9.18;;;;;;;;;;10138997;28;20742;-70
2023/05/25 12:10:16;;;;;;;24.67;9.98;;;;;;;;;;10134919;28;20046;-69
2023/05/25 12:15:14;;;;;;;22.83;9.13;;;;;;;;;;10136922;28;20401;-69
2023/05/25 12:20:15;;;;;;;19.10;9.77;;;;;;;;;;10136919;28;20046;-70
2023/05/25 12:25:12;;;;;;;26.83;8.98;;;;;;;;;;10126790;28;20105;-69
2023/05/25 12:30:09;;;;;;;21.45;9.35;;;;;;;;;;10133759;28;20078;-68
2023/05/25 12:35:05;;;;;;;23.45;9.23;;;;;;;;;;10140230;28;20046;-68
2023/05/25 12:40:15;;;;;;;22.33;9.70;;;;;;;;;;10142333;28;20077;-70
2023/05/25 12:45:11;;;;;;;21.48;9.73;;;;;;;;;;10147929;28;20058;-68
2023/05/25 12:50:12;;;;;;;19.30;8.43;;;;;;;;;;10143413;28;20050;-70
2023/05/25 12:55:20;;;;;;;18.23;8.90;;;;;;;;;;10144035;28;20050;-69
2023/05/25 13:00:18;;;;;;;25.33;9.88;;;;;;;;;;10134901;28;20104;-69
2023/05/25 13:05:24;;;;;;;25.10;9.85;;;;;;;;;;10135313;28;20102;-69
2023/05/25 13:10:22;;;;;;;20.20;9.10;;;;;;;;;;10147463;28;20585;-69
2023/05/25 13:15:19;;;;;;;20.38;9.65;;;;;;;;;;10136699;28;20077;-69
2023/05/25 13:20:17;;;;;;;20.55;9.02;;;;;;;;;;10132699;28;20085;-69
2023/05/25 13:25:13;;;;;;;24.15;10.10;;;;;;;;;;10149626;28;20451;-69
2023/05/25 13:30:10;;;;;;;21.83;10.25;;;;;;;;;;10129448;28;20086;-68
2023/05/25 13:35:07;;;;;;;26.63;9.75;;;;;;;;;;10149126;28;20100;-69
2023/05/25 13:40:04;;;;;;;27.00;10.25;;;;;;;;;;10132151;28;20093;-69
2023/05/25 13:45:03;;;;;;;22.13;9.90;;;;;;;;;;10135902;28;20093;-69
2023/05/25 13:49:59;;;;;;;26.80;10.10;;;;;;;;;;10138804;28;20047;-68
2023/05/25 13:54:56;;;;;;;20.80;9.13;;;;;;;;;;10143403;28;20054;-69
2023/05/25 13:59:52;;;;;;;20.55;10.10;;;;;;;;;;10145549;28;20452;-68
2023/05/25 14:04:48;;;;;;;26.77;11.25;;;;;;;;;;10139682;28;20058;-68
2023/05/25 14:09:45;;;;;;;20.85;10.50;;;;;;;;;;10132746;28;20524;-69
2023/05/25 14:14:41;;;;;;;28.35;10.15;;;;;;;;;;10138667;28;20141;-69
2023/05/25 14:19:38;;;;;;;22.20;10.07;;;;;;;;;;10138264;28;20062;-68
2023/05/25 14:24:34;;;;;;;26.52;10.63;;;;;;;;;;10144252;28;20058;-69
2023/05/25 14:29:30;;;;;;;21.38;9.27;;;;;;;;;;10133009;28;20077;-68
2023/05/25 14:34:27;;;;;;;25.00;11.15;;;;;;;;;;10148360;28;20053;-69
2023/05/25 14:39:23;;;;;;;21.92;10.65;;;;;;;;;;10129431;28;20067;-68
2023/05/25 14:44:20;;;;;;;20.00;9.45;;;;;;;;;;10139043;28;20424;-68
2023/05/25 14:49:16;;;;;;;20.90;9.80;;;;;;;;;;10138911;28;20050;-69
2023/05/25 14:54:12;;;;;;;16.15;9.15;;;;;;;;;;10142720;28;20046;-69
2023/05/25 14:59:09;;;;;;;20.95;9.90;;;;;;;;;;10145904;28;20428;-69
2023/05/25 15:04:05;;;;;;;24.70;9.95;;;;;;;;;;10126355;28;20046;-69
2023/05/25 15:09:02;;;;;;;24.65;10.25;;;;;;;;;;10141920;28;20042;-68
2023/05/25 15:13:59;;;;;;;22.50;9.30;;;;;;;;;;10131258;28;20042;-68
2023/05/25 15:18:55;;;;;;;20.25;9.15;;;;;;;;;;10121609;28;20401;-68
2023/05/25 15:23:51;;;;;;;28.58;11.57;;;;;;;;;;10134627;28;20923;-68
2023/05/25 15:28:48;;;;;;;26.23;9.52;;;;;;;;;;10132112;28;21921;-69
2023/05/25 15:33:46;;;;;;;21.27;9.45;;;;;;;;;;10152044;28;20043;-69
2023/05/25 15:38:51;;;;;;;28.38;10.90;;;;;;;;;;10143880;28;20456;-69
2023/05/25 15:43:53;;;;;;;20.77;9.63;;;;;;;;;;10141778;28;20436;-69
2023/05/25 15:48:49;;;;;;;23.23;10.25;;;;;;;;;;10138901;28;20093;-68
2023/05/25 15:53:46;;;;;;;26.35;10.43;;;;;;;;;;10139632;28;20421;-69
2023/05/25 15:58:45;;;;;;;25.90;10.63;;;;;;;;;;10128499;28;20565;-68
2023/05/25 16:03:42;;;;;;;24.30;10.00;;;;;;;;;;10131181;28;20043;-69
2023/05/25 16:08:38;;;;;;;23.85;9.90;;;;;;;;;;10131676;28;20081;-68
2023/05/25 16:13:35;;;;;;;27.05;11.60;;;;;;;;;;10139212;28;20062;-69
2023/05/25 16:18:34;;;;;;;30.63;10.80;;;;;;;;;;10139830;28;20460;-68
2023/05/25 16:23:30;;;;;;;24.08;11.15;;;;;;;;;;10144372;28;20078;-68
2023/05/25 16:28:26;;;;;;;24.08;9.63;;;;;;;;;;10145983;28;20054;-68
2023/05/25 16:33:23;;;;;;;28.63;10.18;;;;;;;;;;10152160;28;20081;-68
2023/05/25 16:38:19;;;;;;;22.60;10.05;;;;;;;;;;10134735;28;20049;-68
2023/05/25 16:43:15;;;;;;;21.55;9.63;;;;;;;;;;10142337;28;20050;-68
2023/05/25 16:48:15;;;;;;;24.55;9.90;;;;;;;;;;10149225;28;20085;-68
2023/05/25 16:53:11;;;;;;;25.67;9.13;;;;;;;;;;10147110;28;20133;-67
2023/05/25 16:58:08;;;;;;;22.92;9.68;;;;;;;;;;10141248;28;20733;-69
2023/05/25 17:03:05;;;;;;;25.15;10.65;;;;;;;;;;10140311;28;20058;-69
2023/05/25 17:08:02;;;;;;;25.30;10.55;;;;;;;;;;10138413;28;20050;-69
2023/05/25 17:12:58;;;;;;;21.95;9.40;;;;;;;;;;10137322;28;20106;-67
2023/05/25 17:17:55;;;;;;;25.30;9.40;;;;;;;;;;10140504;28;20073;-68
2023/05/25 17:22:51;;;;;;;22.90;9.45;;;;;;;;;;10142318;28;20046;-67
2023/05/25 17:27:48;;;;;;;22.45;9.80;;;;;;;;;;10147001;28;20448;-69
2023/05/25 17:32:44;;;;;;;25.40;10.00;;;;;;;;;;10132378;28;20085;-67
2023/05/25 17:37:41;;;;;;;25.77;9.20;;;;;;;;;;10140709;28;20077;-67
2023/05/25 17:42:39;;;;;;;26.48;10.38;;;;;;;;;;10142611;28;20537;-69
2023/05/25 17:47:35;;;;;;;26.92;8.90;;;;;;;;;;10143315;28;20055;-69
2023/05/25 17:52:31;;;;;;;27.80;9.82;;;;;;;;;;10141799;28;20612;-69
2023/05/25 17:57:28;;;;;;;31.73;10.45;;;;;;;;;;10143206;28;20080;-69
2023/05/25 18:02:24;;;;;;;27.00;9.65;;;;;;;;;;10145315;28;20054;-68
2023/05/25 18:07:21;;;;;;;27.40;9.43;;;;;;;;;;10146888;28;20512;-69
2023/05/25 18:12:17;;;;;;;26.98;9.30;;;;;;;;;;10143619;28;20041;-68
2023/05/25 18:17:13;;;;;;;27.17;10.20;;;;;;;;;;10141170;28;20038;-69
2023/05/25 18:22:10;;;;;;;25.50;9.55;;;;;;;;;;10136357;28;20050;-68
2023/05/25 18:27:06;;;;;;;23.92;8.88;;;;;;;;;;10138957;28;20046;-69
2023/05/25 18:32:03;;;;;;;33.33;9.45;;;;;;;;;;10137875;28;20046;-69
2023/05/25 18:36:59;;;;;;;25.38;9.38;;;;;;;;;;10136756;28;20053;-69
2023/05/25 18:41:55;;;;;;;25.83;9.27;;;;;;;;;;10130216;28;20073;-69
2023/05/25 18:46:54;;;;;;;27.75;8.90;;;;;;;;;;10140615;28;20556;-69
2023/05/25 18:51:50;;;;;;;22.20;8.65;;;;;;;;;;10137221;28;20046;-68
2023/05/25 18:56:46;;;;;;;24.92;8.85;;;;;;;;;;10145202;28;20046;-69
2023/05/25 19:01:43;;;;;;;24.55;8.60;;;;;;;;;;10142860;28;20064;-69
2023/05/25 19:06:39;;;;;;;29.15;8.57;;;;;;;;;;10134288;28;20050;-69
2023/05/25 19:11:35;;;;;;;30.73;10.05;;;;;;;;;;10145291;28;20050;-69
2023/05/25 19:16:32;;;;;;;27.95;9.73;;;;;;;;;;10143492;28;20081;-69
2023/05/25 19:21:28;;;;;;;24.05;9.05;;;;;;;;;;10149067;28;20050;-69
2023/05/25 19:26:24;;;;;;;28.92;9.57;;;;;;;;;;10141758;28;20055;-69
2023/05/25 19:31:22;;;;;;;28.88;10.63;;;;;;;;;;10132516;28;20062;-69
2023/05/25 19:36:18;;;;;;;25.42;9.07;;;;;;;;;;10137736;28;20042;-69
2023/05/25 19:41:14;;;;;;;26.70;9.13;;;;;;;;;;10127636;28;20053;-69
2023/05/25 19:46:11;;;;;;;26.83;9.18;;;;;;;;;;10142025;28;20038;-69
2023/05/25 19:51:08;;;;;;;28.58;9.02;;;;;;;;;;10146330;28;20053;-69
2023/05/25 19:56:04;;;;;;;25.05;9.15;;;;;;;;;;10144946;28;20567;-69
2023/05/25 20:01:00;;;;;;;29.75;10.23;;;;;;;;;;10148644;28;20527;-69
2023/05/25 20:05:57;;;;;;;30.90;10.75;;;;;;;;;;10150332;28;20497;-68
2023/05/25 20:10:54;;;;;;;24.35;8.75;;;;;;;;;;10143905;28;20050;-69
2023/05/25 20:15:50;;;;;;;21.55;8.20;;;;;;;;;;10136553;28;20693;-69
2023/05/25 20:20:47;;;;;;;26.50;9.98;;;;;;;;;;10136437;28;20521;-69
2023/05/25 20:25:43;;;;;;;26.88;9.10;;;;;;;;;;10140852;28;20050;-69
2023/05/25 20:30:40;;;;;;;21.00;8.18;;;;;;;;;;10142112;28;20089;-69
2023/05/25 20:35:36;;;;;;;28.65;9.02;;;;;;;;;;10143545;28;20805;-68
2023/05/25 20:40:33;;;;;;;24.40;7.97;;;;;;;;;;10143699;28;20559;-68
2023/05/25 20:45:29;;;;;;;29.88;10.25;;;;;;;;;;10144691;28;20204;-68
2023/05/25 20:50:26;;;;;;;23.25;8.57;;;;;;;;;;10141774;28;20066;-68
2023/05/25 20:55:26;;;;;;;29.52;9.73;;;;;;;;;;10147058;28;20043;-68
2023/05/25 21:00:22;;;;;;;27.38;9.93;;;;;;;;;;10136430;28;20112;-68
2023/05/25 21:05:18;;;;;;;26.27;7.75;;;;;;;;;;10142635;28;20049;-68
2023/05/25 21:10:15;;;;;;;26.25;8.50;;;;;;;;;;10148403;28;20050;-68
2023/05/25 21:15:11;;;;;;;29.73;9.63;;;;;;;;;;10136021;28;20661;-68
2023/05/25 21:20:08;;;;;;;22.90;7.75;;;;;;;;;;10141070;28;20073;-68
2023/05/25 21:25:05;;;;;;;26.50;9.10;;;;;;;;;;10140767;28;20051;-68
2023/05/25 21:30:02;;;;;;;21.45;9.00;;;;;;;;;;10137408;28;20058;-68
2023/05/25 21:34:58;;;;;;;22.45;9.43;;;;;;;;;;10147436;28;20050;-68
2023/05/25 21:39:55;;;;;;;27.65;8.68;;;;;;;;;;10128862;28;20077;-67
2023/05/25 21:44:51;;;;;;;26.60;7.70;;;;;;;;;;10130205;28;20448;-68
2023/05/25 21:49:48;;;;;;;21.02;7.90;;;;;;;;;;10143460;28;20053;-67
2023/05/25 21:54:44;;;;;;;20.15;7.10;;;;;;;;;;10145293;28;20078;-70
2023/05/25 21:59:40;;;;;;;27.63;8.00;;;;;;;;;;10145045;28;20051;-68
2023/05/25 22:04:37;;;;;;;32.65;9.13;;;;;;;;;;10141503;28;20463;-67
2023/05/25 22:09:33;;;;;;;21.52;7.28;;;;;;;;;;10140157;28;20051;-67
2023/05/25 22:14:29;;;;;;;20.15;7.50;;;;;;;;;;10137052;28;20113;-67
2023/05/25 22:19:26;;;;;;;27.42;7.70;;;;;;;;;;10130974;28;20039;-67
2023/05/25 22:24:22;;;;;;;25.15;7.70;;;;;;;;;;10143336;28;20061;-70
2023/05/25 22:29:19;;;;;;;21.27;7.40;;;;;;;;;;10136006;28;20046;-70
2023/05/25 22:34:17;;;;;;;21.77;6.82;;;;;;;;;;10144883;28;20378;-67
2023/05/25 22:39:13;;;;;;;26.25;7.47;;;;;;;;;;10143969;28;20039;-70
2023/05/25 22:44:10;;;;;;;21.17;7.90;;;;;;;;;;10132900;28;20491;-70
2023/05/25 22:49:06;;;;;;;22.38;7.22;;;;;;;;;;10145077;28;20539;-70
2023/05/25 22:54:02;;;;;;;28.50;8.68;;;;;;;;;;10138789;28;20605;-70
2023/05/25 22:58:59;;;;;;;31.92;7.60;;;;;;;;;;10137784;28;20042;-69
2023/05/25 23:03:55;;;;;;;27.75;7.55;;;;;;;;;;10138453;28;20097;-70
2023/05/25 23:08:53;;;;;;;20.98;7.78;;;;;;;;;;10140509;28;20703;-70
2023/05/25 23:13:50;;;;;;;25.80;9.02;;;;;;;;;;10142569;28;20054;-69
2023/05/25 23:18:46;;;;;;;23.98;7.50;;;;;;;;;;10134854;28;20043;-70
2023/05/25 23:23:43;;;;;;;25.20;6.95;;;;;;;;;;10136618;28;20116;-70
2023/05/25 23:28:39;;;;;;;25.00;7.63;;;;;;;;;;10134431;28;20074;-69
2023/05/25 23:33:35;;;;;;;29.92;10.10;;;;;;;;;;10141161;28;20047;-69
2023/05/25 23:38:32;;;;;;;23.02;8.27;;;;;;;;;;10126044;28;20049;-69
2023/05/25 23:43:28;;;;;;;25.98;7.65;;;;;;;;;;10130002;28;20571;-69
2023/05/25 23:48:24;;;;;;;28.65;8.77;;;;;;;;;;10136340;28;20057;-70
2023/05/25 23:53:21;;;;;;;24.80;8.40;;;;;;;;;;10135206;28;20046;-69
2023/05/25 23:58:17;;;;;;;16.90;7.47;;;;;;;;;;10129692;28;20142;-69
